createdAt,value
2022-08-23T00:02:53.201Z,1.92
2022-08-23T00:08:59.061Z,1.95
2022-08-23T00:15:02.897Z,1.90
2022-08-23T00:21:06.562Z,1.85
2022-08-23T00:33:15.789Z,1.83
2022-08-23T00:39:20.992Z,1.85
2022-08-23T00:45:49.494Z,1.77
2022-08-23T00:51:59.840Z,2.03
2022-08-23T00:58:03.910Z,2.20
2022-08-23T01:04:08.827Z,2.25
2022-08-23T01:10:20.056Z,2.25
2022-08-23T01:16:34.701Z,1.90
2022-08-23T01:22:44.649Z,2.20
2022-08-23T01:28:49.608Z,2.08
2022-08-23T01:34:53.418Z,2.15
2022-08-23T01:40:57.196Z,1.95
2022-08-23T01:47:02.232Z,2.00
2022-08-23T01:53:06.197Z,1.80
2022-08-23T01:59:11.280Z,1.92
2022-08-23T02:05:18.406Z,2.08
2022-08-23T02:11:25.100Z,1.90
2022-08-23T02:17:28.661Z,1.80
2022-08-23T02:23:33.621Z,2.08
2022-08-23T02:29:39.472Z,2.00
2022-08-23T02:35:43.269Z,2.03
2022-08-23T02:41:48.464Z,1.83
2022-08-23T02:47:52.547Z,1.92
2022-08-23T02:53:56.076Z,2.10
2022-08-23T03:00:01.017Z,2.40
2022-08-23T03:06:25.740Z,1.73
2022-08-23T03:12:28.359Z,1.88
2022-08-23T03:24:37.409Z,2.03
2022-08-23T03:30:40.989Z,2.38
2022-08-23T03:36:45.895Z,1.95
2022-08-23T03:42:49.429Z,2.33
2022-08-23T03:48:54.512Z,1.95
2022-08-23T03:54:59.529Z,1.90
2022-08-23T04:01:03.053Z,2.10
2022-08-23T04:07:06.735Z,1.98
2022-08-23T04:19:16.377Z,1.92
2022-08-23T04:25:33.252Z,1.92
2022-08-23T04:31:40.211Z,2.10
2022-08-23T04:37:46.038Z,2.05
2022-08-23T04:43:49.856Z,1.85
2022-08-23T04:49:54.811Z,2.28
2022-08-23T04:55:58.466Z,1.95
2022-08-23T05:08:06.881Z,2.20
2022-08-23T05:14:10.890Z,2.20
2022-08-23T05:20:14.518Z,2.10
2022-08-23T05:32:23.195Z,2.10
2022-08-23T05:38:27.601Z,2.20
2022-08-23T05:44:36.312Z,1.90
2022-08-23T05:50:41.232Z,2.13
2022-08-23T05:56:45.558Z,2.17
2022-08-23T06:02:52.046Z,1.90
2022-08-23T06:08:55.688Z,1.98
2022-08-23T06:21:07.150Z,2.17
2022-08-23T06:27:11.309Z,2.38
2022-08-23T06:33:14.953Z,2.13
2022-08-23T06:45:32.396Z,2.00
2022-08-23T06:51:42.033Z,2.25
2022-08-23T06:57:47.199Z,2.60
2022-08-23T07:03:56.251Z,2.10
2022-08-23T07:09:59.771Z,1.80
2022-08-23T07:16:05.036Z,2.00
2022-08-23T07:22:09.153Z,2.00
2022-08-23T07:34:18.257Z,1.90
2022-08-23T07:40:21.887Z,2.00
2022-08-23T07:46:26.971Z,2.17
2022-08-23T07:52:31.869Z,1.90
2022-08-23T07:58:35.592Z,2.05
2022-08-23T08:04:39.881Z,1.88
2022-08-23T08:10:44.887Z,1.98
2022-08-23T08:16:50.954Z,2.05
2022-08-23T08:22:58.842Z,2.10
2022-08-23T08:29:06.265Z,1.73
2022-08-23T08:35:10.746Z,1.73
2022-08-23T08:41:19.813Z,2.17
2022-08-23T08:47:35.071Z,2.00
2022-08-23T08:53:44.987Z,2.55
2022-08-23T08:59:57.110Z,2.00
2022-08-23T09:06:09.459Z,2.03
2022-08-23T09:12:30.149Z,2.08
2022-08-23T09:18:37.339Z,1.83
2022-08-23T09:24:42.949Z,2.17
2022-08-23T09:30:49.678Z,2.22
2022-08-23T09:37:06.720Z,2.05
2022-08-23T09:43:15.348Z,1.98
2022-08-23T09:49:28.353Z,2.40
2022-08-23T09:55:35.398Z,1.97
2022-08-23T10:01:40.436Z,2.25
2022-08-23T10:07:46.524Z,2.10
2022-08-23T10:13:50.090Z,2.28
2022-08-23T10:20:04.982Z,1.83
2022-08-23T10:26:11.870Z,1.80
2022-08-23T10:32:23.898Z,1.70
2022-08-23T10:38:41.139Z,1.90
2022-08-23T10:44:52.020Z,2.05
2022-08-23T10:51:02.117Z,2.20
2022-08-23T10:57:07.788Z,1.92
2022-08-23T11:03:25.490Z,2.20
2022-08-23T11:09:54.836Z,2.03
2022-08-23T11:16:03.370Z,1.95
2022-08-23T11:22:18.185Z,2.25
2022-08-23T11:28:41.334Z,2.20
2022-08-23T11:34:58.786Z,2.20
2022-08-23T11:41:14.560Z,2.10
2022-08-23T11:47:28.967Z,1.98
2022-08-23T11:54:00.350Z,2.25
2022-08-23T12:00:17.799Z,2.45
2022-08-23T12:06:50.839Z,1.88
2022-08-23T12:13:33.560Z,2.92
2022-08-23T12:19:41.552Z,2.33
2022-08-23T12:25:45.347Z,2.05
2022-08-23T12:32:11.409Z,1.90
2022-08-23T12:38:19.556Z,1.73
2022-08-23T12:44:26.779Z,2.35
2022-08-23T12:50:34.793Z,2.20
2022-08-23T12:56:39.061Z,2.10
2022-08-23T13:02:48.015Z,2.38
2022-08-23T13:09:00.266Z,1.90
2022-08-23T13:15:05.283Z,1.90
2022-08-23T13:21:31.873Z,2.38
2022-08-23T13:27:54.833Z,2.17
2022-08-23T13:33:58.357Z,2.30
2022-08-23T13:40:11.778Z,2.58
2022-08-23T13:46:22.792Z,2.03
2022-08-23T13:52:50.925Z,2.38
2022-08-23T13:58:56.480Z,1.88
2022-08-23T14:05:01.485Z,1.85
2022-08-23T14:11:05.330Z,2.05
2022-08-23T14:17:10.694Z,1.90
2022-08-23T14:23:18.924Z,1.85
2022-08-23T14:29:23.176Z,2.00
2022-08-23T14:35:26.890Z,2.13
2022-08-23T14:41:32.289Z,2.17
2022-08-23T14:47:36.426Z,2.00
2022-08-23T14:53:40.160Z,2.55
2022-08-23T14:59:45.248Z,1.95
2022-08-23T15:05:48.895Z,2.47
2022-08-23T15:18:20.909Z,2.30
2022-08-23T15:24:25.451Z,2.78
2022-08-23T15:30:30.336Z,2.20
2022-08-23T15:36:43.267Z,2.28
2022-08-23T15:42:46.852Z,2.67
2022-08-23T15:48:54.469Z,2.67
2022-08-23T15:54:59.398Z,2.35
2022-08-23T16:01:03.067Z,2.40
2022-08-23T16:07:07.529Z,2.60
2022-08-23T16:13:12.549Z,2.40
2022-08-23T16:19:16.955Z,2.40
2022-08-23T16:25:20.970Z,2.50
2022-08-23T16:31:38.262Z,2.40
2022-08-23T16:37:42.809Z,2.53
2022-08-23T16:43:46.387Z,2.38
2022-08-23T16:55:56.792Z,2.30
2022-08-23T17:02:10.492Z,2.28
2022-08-23T17:08:16.070Z,2.70
2022-08-23T17:14:21.476Z,2.45
2022-08-23T17:20:28.493Z,2.45
2022-08-23T17:26:33.637Z,2.92
2022-08-23T17:32:37.205Z,2.28
2022-08-23T17:44:45.913Z,2.78
2022-08-23T17:50:50.312Z,2.20
2022-08-23T17:56:53.887Z,2.45
2022-08-23T18:09:03.422Z,3.05
2022-08-23T18:15:08.189Z,2.67
2022-08-23T18:21:21.400Z,3.25
2022-08-23T18:27:44.869Z,2.90
2022-08-23T18:33:48.482Z,3.40
2022-08-23T18:45:57.463Z,3.00
2022-08-23T18:52:01.355Z,2.90
2022-08-23T18:58:08.005Z,2.53
2022-08-23T19:04:13.067Z,2.50
2022-08-23T19:10:20.361Z,2.90
2022-08-23T19:16:29.005Z,2.42
2022-08-23T19:22:37.960Z,2.67
2022-08-23T19:28:43.435Z,2.50
2022-08-23T19:34:53.713Z,2.85
2022-08-23T19:40:58.598Z,2.50
2022-08-23T19:47:04.318Z,2.88
2022-08-23T19:53:09.685Z,2.28
2022-08-23T19:59:18.066Z,2.10
2022-08-23T20:05:22.890Z,2.90
2022-08-23T20:11:28.674Z,2.42
2022-08-23T20:17:34.604Z,2.20
2022-08-23T20:23:55.929Z,2.17
2022-08-23T20:30:02.572Z,2.08
2022-08-23T20:36:06.851Z,2.15
2022-08-23T20:42:11.579Z,2.50
2022-08-23T20:48:16.542Z,2.83
2022-08-23T20:54:20.181Z,2.15
2022-08-23T21:06:30.194Z,2.00
2022-08-23T21:12:33.750Z,2.47
2022-08-23T21:24:42.148Z,2.60
2022-08-23T21:30:45.766Z,2.42
2022-08-23T21:42:56.309Z,2.53
2022-08-23T21:49:00.384Z,2.53
2022-08-23T21:55:04.024Z,2.63
2022-08-23T22:01:09.622Z,2.40
2022-08-23T22:07:13.431Z,2.92
2022-08-23T22:19:22.947Z,2.55
2022-08-23T22:25:27.393Z,2.72
2022-08-23T22:31:31.153Z,2.58
2022-08-23T22:37:37.629Z,2.30
2022-08-23T22:43:41.195Z,2.78
2022-08-23T22:55:52.542Z,2.50
2022-08-23T23:01:58.747Z,2.53
2022-08-23T23:08:20.497Z,2.67
2022-08-23T23:14:25.481Z,2.50
2022-08-23T23:20:39.274Z,2.85
2022-08-23T23:26:47.480Z,2.60
2022-08-23T23:32:52.809Z,3.03
2022-08-23T23:38:56.437Z,2.80
2022-08-23T23:45:00.130Z,3.20
2022-08-23T23:57:11.509Z,3.08
